CYBW

Calgary / Springbank Airport

Calgary, Alberta, Canada
METAR CYBW 162200Z AUTO 05003KT 340V060 9SM CLR 02/M06 A2974 RMK SLP121
Observed Flight Rules
Dec-16 @ 22:00 UTC (14 minutes ago) Visual Flight Rules
Wind Visibility Clouds
50° at 3 knots 9 miles
  • Clear skies
Temperatures Readings
Current 2°C / 36°F
Dewpoint -6°C / 21°F
Humidity 56%
Altimeter 29.74" Hg
Pressure 1012.1 hPa
Elevation 1200
METAR CYBW 162200Z AUTO 05003KT 340V060 9SM CLR 02/M06 A2974 RMK SLP121
Observed Flight Rules
Dec-16 @ 22:00 UTC
(14 minutes ago)
VFR
Wind Visibility
50° at 3 knots 9 miles
Clouds
  • Clear skies
Temperature Dewpoint
2°C / 36°F -6°C / 21°F
Humidity Altimeter Pressure
56% 29.74" Hg 1012.1 hPa